Time;durP1;ratioP1;P1;durP2;ratioP2;P2;SDS_P1;SDS_P2;PMS_P1;PMS_P2;Temp;Humidity;BMP_temperature;BMP_pressure;BME280_temperature;BME280_humidity;BME280_pressure;Samples;Min_cycle;Max_cycle;Signal;HPM_P1;HPM_P2
2022/07/12 04:17:54;;;;;;;3.60;2.00;;;;;;;14.45;64.57;100794.97;5561495;32;208825;-85
2022/07/12 04:20:58;;;;;;;5.25;1.92;;;;;;;14.45;64.57;100794.97;5550182;32;33503;-85
2022/07/12 04:24:00;;;;;;;3.37;1.98;;;;;;;14.02;65.58;100799.19;5549524;32;32174;-82
2022/07/12 04:27:03;;;;;;;2.60;1.90;;;;;;;14.10;65.71;100803.22;5550639;32;33887;-83
2022/07/12 04:30:07;;;;;;;3.45;1.83;;;;;;;14.23;65.60;100795.38;5550255;32;34174;-82
2022/07/12 04:33:10;;;;;;;3.80;1.90;;;;;;;14.28;65.20;100794.13;5550733;32;34087;-83
2022/07/12 04:36:13;;;;;;;1.98;1.80;;;;;;;14.42;64.78;100797.78;5550571;32;33883;-87
2022/07/12 04:39:16;;;;;;;1.83;1.70;;;;;;;14.58;64.67;100792.41;5553395;32;32477;-87
2022/07/12 04:42:18;;;;;;;5.15;1.90;;;;;;;14.72;64.30;100790.72;5555379;32;34135;-87
2022/07/12 04:45:22;;;;;;;2.03;1.83;;;;;;;14.88;63.72;100793.34;5556512;32;33760;-86
2022/07/12 04:48:25;;;;;;;4.25;2.22;;;;;;;14.93;63.50;100791.22;5556815;32;34184;-83
2022/07/12 04:51:28;;;;;;;2.10;1.90;;;;;;;14.94;63.54;100787.62;5550859;32;33750;-83
2022/07/12 04:54:30;;;;;;;3.47;1.80;;;;;;;15.05;63.19;100785.13;5557903;32;34264;-83
2022/07/12 04:57:34;;;;;;;8.27;1.75;;;;;;;15.28;62.68;100782.00;5549382;32;34385;-83
2022/07/12 05:00:36;;;;;;;5.43;1.95;;;;;;;15.49;62.02;100788.63;5549040;32;33100;-83
2022/07/12 05:03:39;;;;;;;4.57;1.87;;;;;;;15.67;61.33;100785.72;5550650;32;34980;-83
2022/07/12 05:06:42;;;;;;;3.62;1.90;;;;;;;15.72;60.95;100788.97;5550280;32;34221;-83
2022/07/12 05:09:45;;;;;;;4.85;2.00;;;;;;;15.98;60.40;100788.22;5549562;32;34170;-84
2022/07/12 05:12:47;;;;;;;5.28;1.80;;;;;;;15.98;60.04;100798.94;5550951;32;36364;-83
2022/07/12 05:15:51;;;;;;;3.33;1.80;;;;;;;15.94;60.14;100800.97;5552648;32;34297;-83
2022/07/12 05:18:54;;;;;;;3.53;1.92;;;;;;;16.34;59.35;100804.62;5553545;32;34778;-84
2022/07/12 05:21:56;;;;;;;2.10;1.87;;;;;;;16.63;57.96;100794.59;5554544;32;34270;-84
2022/07/12 05:24:59;;;;;;;4.40;1.80;;;;;;;16.81;57.09;100800.50;5557231;32;35253;-83
2022/07/12 05:28:02;;;;;;;2.92;1.55;;;;;;;17.14;56.55;100808.16;5547881;32;34092;-83
2022/07/12 05:31:05;;;;;;;5.40;1.83;;;;;;;19.62;49.16;100795.88;5541245;32;34057;-84
2022/07/12 05:34:08;;;;;;;3.10;1.42;;;;;;;21.69;43.35;100805.31;5539104;32;33443;-83
2022/07/12 05:37:11;;;;;;;5.43;1.50;;;;;;;23.09;40.50;100800.53;5540365;32;34387;-83
2022/07/12 05:40:13;;;;;;;2.75;1.23;;;;;;;25.63;35.52;100802.22;5537330;32;32921;-84
2022/07/12 05:43:16;;;;;;;3.35;1.50;;;;;;;26.97;32.30;100803.13;5534435;32;34191;-85
2022/07/12 05:46:19;;;;;;;5.20;1.62;;;;;;;29.32;28.41;100801.06;5537412;32;34107;-84
2022/07/12 05:49:22;;;;;;;5.28;1.73;;;;;;;30.26;27.18;100798.56;5537197;32;34654;-84
2022/07/12 05:55:46;;;;;;;1.75;1.30;;;;;;;28.49;28.48;100812.00;5537054;32;34131;-84
2022/07/12 05:58:50;;;;;;;2.17;0.80;;;;;;;27.24;30.99;100809.16;5539113;32;34271;-84
2022/07/12 06:01:52;;;;;;;3.42;1.30;;;;;;;27.71;30.22;100812.91;5538726;32;34300;-84
2022/07/12 06:04:55;;;;;;;1.48;0.90;;;;;;;27.91;29.51;100807.81;5538720;32;33876;-84
2022/07/12 06:07:58;;;;;;;4.50;1.37;;;;;;;28.20;29.11;100803.53;5538308;32;33880;-84
2022/07/12 06:11:00;;;;;;;3.22;1.12;;;;;;;30.76;26.41;100803.16;5539118;32;33954;-84
2022/07/12 06:14:03;;;;;;;2.92;1.17;;;;;;;32.07;24.57;100798.88;5538265;32;32658;-84
2022/07/12 06:17:08;;;;;;;3.60;1.12;;;;;;;33.50;23.04;100800.34;5545460;32;32475;-84
2022/07/12 06:20:11;;;;;;;2.80;0.90;;;;;;;31.81;24.54;100800.47;5544510;32;35325;-86
2022/07/12 06:23:14;;;;;;;4.57;1.05;;;;;;;29.29;26.68;100804.19;5535878;32;34309;-87
2022/07/12 06:26:16;;;;;;;1.80;0.93;;;;;;;30.12;26.01;100799.47;5533148;32;34119;-87
2022/07/12 06:29:21;;;;;;;0.80;0.70;;;;;;;31.44;24.55;100804.41;5532152;32;33795;-87
2022/07/12 06:32:24;;;;;;;3.03;0.93;;;;;;;29.93;25.80;100796.31;5531886;32;32582;-87
2022/07/12 06:35:27;;;;;;;3.72;0.70;;;;;;;29.37;26.71;100805.97;5532395;32;32917;-87
2022/07/12 06:38:30;;;;;;;2.62;0.82;;;;;;;32.54;23.26;100807.97;5532541;32;33671;-87
2022/07/12 06:41:36;;;;;;;4.05;0.90;;;;;;;31.99;23.52;100799.94;5533775;32;33957;-86
2022/07/12 06:44:38;;;;;;;1.65;0.90;;;;;;;30.29;25.31;100807.41;5534356;32;33686;-86
2022/07/12 06:47:41;;;;;;;4.03;1.05;;;;;;;26.95;29.64;100802.47;5533851;32;34023;-88
2022/07/12 06:50:44;;;;;;;1.35;0.80;;;;;;;26.29;30.87;100797.94;5534664;32;34029;-90
2022/07/12 06:53:46;;;;;;;1.87;0.93;;;;;;;26.43;31.67;100801.81;5531352;32;34769;-90
2022/07/12 06:56:49;;;;;;;2.42;1.00;;;;;;;26.78;30.70;100803.34;5531569;32;36638;-91
2022/07/12 06:59:52;;;;;;;3.40;1.23;;;;;;;26.42;31.57;100802.84;5530819;32;34348;-89
2022/07/12 07:02:55;;;;;;;2.78;1.05;;;;;;;26.89;30.90;100802.09;5531851;32;33853;-87
2022/07/12 07:05:58;;;;;;;2.72;1.08;;;;;;;27.02;30.37;100796.16;5529530;32;33076;-86
2022/07/12 07:09:01;;;;;;;4.87;1.08;;;;;;;25.49;31.88;100805.56;5530843;32;32540;-87
2022/07/12 07:12:05;;;;;;;1.48;0.90;;;;;;;26.00;32.08;100801.97;5530513;32;32374;-87
2022/07/12 07:15:08;;;;;;;4.00;1.17;;;;;;;26.21;31.09;100798.75;5529925;32;34164;-86
2022/07/12 07:18:11;;;;;;;3.37;1.10;;;;;;;25.25;32.63;100801.72;5530616;32;34715;-87
2022/07/12 07:21:13;;;;;;;1.50;0.85;;;;;;;25.50;32.20;100799.94;5531033;32;34234;-87
2022/07/12 07:24:16;;;;;;;4.45;1.10;;;;;;;26.04;31.38;100797.91;5530752;32;33700;-87
2022/07/12 07:27:19;;;;;;;4.10;0.70;;;;;;;24.69;33.17;100802.91;5530459;32;34367;-87
2022/07/12 07:33:43;;;;;;;3.08;1.20;;;;;;;23.76;35.35;100795.97;5531128;32;33903;-85
2022/07/12 07:36:46;;;;;;;2.72;1.60;;;;;;;24.95;33.40;100787.66;5532214;32;33910;-85
2022/07/12 07:39:49;;;;;;;3.90;1.17;;;;;;;25.17;33.15;100797.97;5514916;32;34006;-85
2022/07/12 07:42:51;;;;;;;3.08;1.17;;;;;;;25.27;33.47;100791.53;5521781;32;33741;-85
2022/07/12 07:45:54;;;;;;;1.55;1.08;;;;;;;25.39;32.41;100792.13;5527533;32;33324;-85
2022/07/12 07:48:57;;;;;;;1.65;1.02;;;;;;;25.17;33.06;100788.97;5545033;32;33796;-87
2022/07/12 07:52:00;;;;;;;2.05;0.80;;;;;;;26.08;31.70;100793.81;5543672;32;34717;-88
2022/07/12 07:55:03;;;;;;;2.25;1.33;;;;;;;25.47;32.33;100785.84;5542088;32;34075;-88
2022/07/12 07:58:05;;;;;;;4.53;1.10;;;;;;;25.80;32.34;100784.09;5544027;32;34630;-88
2022/07/12 08:01:08;;;;;;;1.17;0.88;;;;;;;25.42;32.01;100783.63;5544125;32;34297;-91
2022/07/12 08:04:16;;;;;;;5.45;1.35;;;;;;;26.65;31.23;100786.69;5546402;32;35275;-88
2022/07/12 08:07:19;;;;;;;5.70;1.20;;;;;;;27.71;29.69;100786.50;5545418;32;34153;-89
2022/07/12 08:10:42;;;;;;;2.35;1.10;;;;;;;27.67;29.08;100785.16;5545535;32;32640;-92
2022/07/12 08:21:29;;;;;;;4.65;1.20;;;;;;;27.68;28.32;100789.59;5550879;32;20115;-88
2022/07/12 08:24:31;;;;;;;2.20;0.82;;;;;;;27.50;29.28;100792.53;5549561;32;33846;-88
2022/07/12 08:27:34;;;;;;;2.33;1.00;;;;;;;27.60;28.43;100786.88;5548775;32;34727;-88
2022/07/12 08:30:37;;;;;;;3.50;1.10;;;;;;;27.87;28.27;100792.87;5549049;32;34795;-87
2022/07/12 08:33:47;;;;;;;4.75;1.30;;;;;;;28.50;27.62;100794.59;5537058;32;33926;-88
2022/07/12 08:36:50;;;;;;;3.67;0.80;;;;;;;28.47;27.71;100784.91;5566282;26;33926;-89
2022/07/12 08:39:52;;;;;;;4.50;1.15;;;;;;;29.40;26.48;100780.13;5576474;26;32517;-89
2022/07/12 08:42:57;;;;;;;5.55;1.10;;;;;;;28.87;26.82;100781.12;5551062;32;34542;-89
2022/07/12 08:46:08;;;;;;;0.90;0.80;;;;;;;29.31;27.08;100787.62;5551000;32;33686;-89
2022/07/12 08:49:11;;;;;;;1.20;1.00;;;;;;;29.42;26.87;100775.34;5550400;32;33967;-88
2022/07/12 08:52:28;;;;;;;3.35;0.85;;;;;;;29.30;26.51;100775.81;5549394;32;33898;-89
2022/07/12 08:55:36;;;;;;;2.17;0.60;;;;;;;28.18;26.86;100778.31;5550057;32;34097;-89
2022/07/12 08:58:39;;;;;;;1.80;0.80;;;;;;;28.41;26.84;100779.34;5550444;32;34008;-87
2022/07/12 09:01:43;;;;;;;1.62;0.90;;;;;;;28.35;27.37;100768.16;5546612;32;32630;-87
2022/07/12 09:04:46;;;;;;;2.65;0.90;;;;;;;28.03;27.47;100780.13;5551141;32;34913;-87
2022/07/12 09:07:49;;;;;;;4.22;0.88;;;;;;;29.16;26.06;100774.81;5551231;32;34241;-85
2022/07/12 09:10:55;;;;;;;3.83;1.40;;;;;;;29.45;25.82;100777.66;5555707;32;34083;-86
2022/07/12 09:13:59;;;;;;;2.90;1.23;;;;;;;29.44;25.54;100778.72;5550509;32;33806;-85
2022/07/12 09:17:09;;;;;;;4.32;1.12;;;;;;;28.46;26.75;100768.75;5553515;32;33998;-85
2022/07/12 09:20:15;;;;;;;3.05;1.02;;;;;;;29.90;25.65;100774.81;5555080;32;34093;-89
2022/07/12 09:23:17;;;;;;;6.22;1.23;;;;;;;28.64;26.97;100776.56;5555966;32;33863;-89
2022/07/12 09:26:21;;;;;;;3.60;1.33;;;;;;;30.54;25.19;100774.97;5557644;32;32370;-89
2022/07/12 09:29:25;;;;;;;5.65;1.27;;;;;;;30.73;24.47;100773.47;5558495;32;35051;-86
2022/07/12 09:36:10;;;;;;;3.60;1.02;;;;;;;31.05;24.18;100767.50;5563822;31;32496;-87
2022/07/12 09:39:13;;;;;;;4.68;1.10;;;;;;;30.26;25.21;100752.03;5566557;31;34181;-87
2022/07/12 09:42:15;;;;;;;3.03;0.95;;;;;;;29.97;24.65;100753.84;5566959;31;35234;-87
2022/07/12 09:45:19;;;;;;;1.73;1.17;;;;;;;28.50;26.53;100770.91;5566424;31;33471;-85
2022/07/12 09:48:22;;;;;;;3.10;1.10;;;;;;;29.63;25.45;100762.78;5564993;32;34774;-85
2022/07/12 09:51:28;;;;;;;3.35;1.05;;;;;;;30.23;24.27;100748.84;5564340;32;34061;-86
2022/07/12 09:54:34;;;;;;;2.40;0.93;;;;;;;31.15;22.79;100757.03;5556843;31;34178;-87
2022/07/12 09:57:41;;;;;;;1.85;1.02;;;;;;;31.64;21.78;100742.44;5558560;32;34296;-87
2022/07/12 10:00:43;;;;;;;3.92;1.23;;;;;;;32.13;21.98;100741.25;5561217;31;34752;-86
2022/07/12 10:03:47;;;;;;;3.92;0.90;;;;;;;32.21;21.76;100742.09;5567024;32;34873;-86
2022/07/12 10:06:50;;;;;;;3.53;1.30;;;;;;;30.61;23.25;100750.41;5566655;32;35210;-85
2022/07/12 10:09:54;;;;;;;1.83;1.00;;;;;;;29.85;24.52;100752.69;5566640;32;34991;-86
2022/07/12 10:12:56;;;;;;;1.92;1.40;;;;;;;28.41;25.73;100752.06;5565640;32;34695;-86
2022/07/12 10:16:01;;;;;;;3.42;1.50;;;;;;;29.04;25.52;100732.63;5565086;32;34058;-85
2022/07/12 10:19:31;;;;;;;3.97;1.20;;;;;;;29.03;25.94;100745.47;5558924;32;34262;-85
2022/07/12 10:22:34;;;;;;;6.37;1.20;;;;;;;27.00;28.95;100743.75;5538168;32;32374;-85
2022/07/12 10:25:36;;;;;;;9.02;1.40;;;;;;;27.71;27.27;100736.59;5551986;32;34696;-85
2022/07/12 10:29:04;;;;;;;2.87;1.12;;;;;;;27.27;28.35;100740.75;5551396;32;34104;-85
2022/07/12 10:32:33;;;;;;;4.12;1.25;;;;;;;27.17;28.28;100736.34;5551480;32;34349;-86
2022/07/12 10:35:35;;;;;;;4.45;1.30;;;;;;;27.64;28.09;100736.47;5552181;32;33767;-86
2022/07/12 10:38:38;;;;;;;3.00;1.08;;;;;;;27.16;28.19;100718.31;5551906;32;34625;-86
2022/07/12 10:41:41;;;;;;;2.80;1.30;;;;;;;27.84;27.26;100722.34;5554069;32;33888;-85
2022/07/12 10:44:46;;;;;;;4.10;1.02;;;;;;;26.77;28.88;100709.13;5551801;32;34011;-86
2022/07/12 10:47:56;;;;;;;5.55;1.23;;;;;;;26.60;29.81;100719.19;5538327;31;32747;-87
2022/07/12 10:51:13;;;;;;;3.35;1.62;;;;;;;26.18;30.51;100723.81;5551852;32;33680;-87
2022/07/12 10:54:21;;;;;;;2.28;1.20;;;;;;;26.89;29.46;100725.91;5537242;32;32493;-86
2022/07/12 10:57:45;;;;;;;4.32;1.27;;;;;;;27.02;29.31;100727.25;5550853;32;34665;-87
2022/07/12 11:00:50;;;;;;;11.75;2.05;;;;;;;25.76;31.19;100722.97;5536171;32;32615;-89
2022/07/12 11:04:09;;;;;;;9.20;1.40;;;;;;;26.25;30.81;100729.47;5551347;32;34473;-85
2022/07/12 11:07:17;;;;;;;6.50;1.20;;;;;;;24.77;32.38;100748.72;5549954;32;34059;-87
2022/07/12 11:10:20;;;;;;;4.62;1.10;;;;;;;23.88;34.81;100743.25;5536662;32;32406;-88
2022/07/12 11:13:24;;;;;;;9.65;1.95;;;;;;;24.31;34.34;100748.91;5550994;32;34612;-89
2022/07/12 11:16:31;;;;;;;4.50;1.20;;;;;;;24.16;34.93;100745.94;5550998;31;33869;-88
2022/07/12 11:19:34;;;;;;;3.33;1.12;;;;;;;23.79;35.75;100739.63;5549744;32;33981;-88
2022/07/12 11:22:39;;;;;;;1.20;1.10;;;;;;;24.15;35.07;100737.94;5550724;32;33842;-87
2022/07/12 11:25:43;;;;;;;2.95;1.08;;;;;;;25.00;34.04;100737.31;5550440;32;34169;-92
2022/07/12 11:28:48;;;;;;;2.95;1.00;;;;;;;25.93;33.02;100731.13;5549823;32;34296;-92
2022/07/12 11:32:05;;;;;;;1.25;0.82;;;;;;;26.41;32.33;100728.59;5550565;32;33963;-91
2022/07/12 11:35:20;;;;;;;3.53;1.30;;;;;;;26.51;32.25;100726.50;5537564;32;32779;-89
2022/07/12 11:38:24;;;;;;;;;;;;;;;26.48;32.33;100715.13;5552310;32;33849;-88
2022/07/12 11:41:37;;;;;;;5.55;1.12;;;;;;;26.66;32.04;100708.63;5547674;32;35134;-88
2022/07/12 11:44:51;;;;;;;2.05;1.10;;;;;;;26.20;32.40;100708.19;5564967;32;34987;-88
2022/07/12 11:47:54;;;;;;;2.45;0.70;;;;;;;26.38;32.33;100707.16;5564307;31;34722;-88
2022/07/12 11:51:02;;;;;;;0.93;0.70;;;;;;;27.22;29.12;100703.16;5551057;32;34734;-88
2022/07/12 11:54:04;;;;;;;1.83;0.80;;;;;;;27.82;26.15;100695.28;5549690;32;33629;-88
2022/07/12 11:57:11;;;;;;;3.70;0.70;;;;;;;27.74;26.36;100687.19;5549162;32;33995;-88
2022/07/12 12:00:16;;;;;;;5.45;0.77;;;;;;;28.03;25.81;100674.69;5548928;32;33988;-88
